sensor_id;sensor_type;location;lat;lon;timestamp;pressure;altitude;pressure_sealevel;temperature;humidity
76868;BME280;66168;45.478;11.060;2023-12-20T00:02:17;100888.66;;;6.43;60.31
76868;BME280;66168;45.478;11.060;2023-12-20T00:04:44;100889.61;;;6.42;60.29
76868;BME280;66168;45.478;11.060;2023-12-20T00:07:11;100880.15;;;6.44;60.20
76868;BME280;66168;45.478;11.060;2023-12-20T00:09:38;100880.71;;;6.47;60.12
76868;BME280;66168;45.478;11.060;2023-12-20T00:12:06;100879.10;;;6.49;60.01
76868;BME280;66168;45.478;11.060;2023-12-20T00:14:32;100873.56;;;6.50;60.16
76868;BME280;66168;45.478;11.060;2023-12-20T00:16:59;100866.94;;;6.49;60.18
76868;BME280;66168;45.478;11.060;2023-12-20T00:19:26;100858.77;;;6.46;60.26
76868;BME280;66168;45.478;11.060;2023-12-20T00:21:53;100852.81;;;6.44;60.24
76868;BME280;66168;45.478;11.060;2023-12-20T00:24:20;100846.61;;;6.43;60.23
76868;BME280;66168;45.478;11.060;2023-12-20T00:26:47;100837.25;;;6.41;60.36
76868;BME280;66168;45.478;11.060;2023-12-20T00:29:14;100833.50;;;6.40;60.39
76868;BME280;66168;45.478;11.060;2023-12-20T00:31:40;100833.44;;;6.40;60.44
76868;BME280;66168;45.478;11.060;2023-12-20T00:34:07;100829.71;;;6.41;60.37
76868;BME280;66168;45.478;11.060;2023-12-20T00:36:35;100826.05;;;6.38;60.35
76868;BME280;66168;45.478;11.060;2023-12-20T00:39:02;100824.70;;;6.35;60.53
76868;BME280;66168;45.478;11.060;2023-12-20T00:41:29;100819.06;;;6.32;60.46
76868;BME280;66168;45.478;11.060;2023-12-20T00:43:55;100814.40;;;6.29;60.82
76868;BME280;66168;45.478;11.060;2023-12-20T00:46:22;100812.05;;;6.26;61.17
76868;BME280;66168;45.478;11.060;2023-12-20T00:48:49;100809.17;;;6.23;60.95
76868;BME280;66168;45.478;11.060;2023-12-20T00:51:16;100807.45;;;6.23;60.90
76868;BME280;66168;45.478;11.060;2023-12-20T00:53:43;100805.64;;;6.21;60.78
76868;BME280;66168;45.478;11.060;2023-12-20T00:56:10;100800.15;;;6.22;60.79
76868;BME280;66168;45.478;11.060;2023-12-20T00:58:37;100795.73;;;6.23;60.74
76868;BME280;66168;45.478;11.060;2023-12-20T01:01:04;100799.22;;;6.24;60.64
76868;BME280;66168;45.478;11.060;2023-12-20T01:03:31;100797.21;;;6.25;60.69
76868;BME280;66168;45.478;11.060;2023-12-20T01:05:57;100792.81;;;6.25;60.61
76868;BME280;66168;45.478;11.060;2023-12-20T01:08:24;100790.27;;;6.26;60.45
76868;BME280;66168;45.478;11.060;2023-12-20T01:10:51;100783.88;;;6.25;60.37
76868;BME280;66168;45.478;11.060;2023-12-20T01:13:18;100785.43;;;6.25;60.69
76868;BME280;66168;45.478;11.060;2023-12-20T01:15:45;100788.02;;;6.25;60.76
76868;BME280;66168;45.478;11.060;2023-12-20T01:18:14;100785.89;;;6.27;60.61
76868;BME280;66168;45.478;11.060;2023-12-20T01:20:41;100785.71;;;6.29;60.44
76868;BME280;66168;45.478;11.060;2023-12-20T01:23:08;100781.65;;;6.29;60.31
76868;BME280;66168;45.478;11.060;2023-12-20T01:25:34;100784.30;;;6.29;60.23
76868;BME280;66168;45.478;11.060;2023-12-20T01:28:01;100781.71;;;6.28;60.01
76868;BME280;66168;45.478;11.060;2023-12-20T01:30:30;100774.00;;;6.26;60.23
76868;BME280;66168;45.478;11.060;2023-12-20T01:32:57;100773.30;;;6.24;60.20
76868;BME280;66168;45.478;11.060;2023-12-20T01:35:23;100772.04;;;6.25;60.23
76868;BME280;66168;45.478;11.060;2023-12-20T01:37:50;100767.20;;;6.24;60.42
76868;BME280;66168;45.478;11.060;2023-12-20T01:40:19;100767.73;;;6.22;60.42
76868;BME280;66168;45.478;11.060;2023-12-20T01:42:46;100762.45;;;6.20;60.38
76868;BME280;66168;45.478;11.060;2023-12-20T01:45:13;100756.35;;;6.18;60.27
76868;BME280;66168;45.478;11.060;2023-12-20T01:47:40;100758.14;;;6.16;60.51
76868;BME280;66168;45.478;11.060;2023-12-20T01:50:08;100755.20;;;6.13;60.41
76868;BME280;66168;45.478;11.060;2023-12-20T01:52:35;100754.38;;;6.11;60.63
76868;BME280;66168;45.478;11.060;2023-12-20T01:55:04;100752.55;;;6.08;60.52
76868;BME280;66168;45.478;11.060;2023-12-20T01:57:37;100747.00;;;6.05;60.62
76868;BME280;66168;45.478;11.060;2023-12-20T02:00:05;100743.75;;;6.06;60.79
76868;BME280;66168;45.478;11.060;2023-12-20T02:02:39;100738.23;;;6.08;60.68
76868;BME280;66168;45.478;11.060;2023-12-20T02:05:08;100731.46;;;6.09;60.64
76868;BME280;66168;45.478;11.060;2023-12-20T02:07:35;100727.45;;;6.11;60.55
76868;BME280;66168;45.478;11.060;2023-12-20T02:10:03;100724.05;;;6.13;60.21
76868;BME280;66168;45.478;11.060;2023-12-20T02:12:30;100724.84;;;6.14;60.34
76868;BME280;66168;45.478;11.060;2023-12-20T02:14:57;100724.91;;;6.13;60.39
76868;BME280;66168;45.478;11.060;2023-12-20T02:17:25;100727.23;;;6.15;60.21
76868;BME280;66168;45.478;11.060;2023-12-20T02:19:52;100722.40;;;6.16;60.20
76868;BME280;66168;45.478;11.060;2023-12-20T02:22:19;100725.23;;;6.15;60.02
76868;BME280;66168;45.478;11.060;2023-12-20T02:24:46;100723.87;;;6.15;60.29
76868;BME280;66168;45.478;11.060;2023-12-20T02:27:15;100722.43;;;6.13;60.61
76868;BME280;66168;45.478;11.060;2023-12-20T02:29:42;100718.84;;;6.12;60.30
76868;BME280;66168;45.478;11.060;2023-12-20T02:32:08;100713.46;;;6.12;60.16
76868;BME280;66168;45.478;11.060;2023-12-20T02:34:35;100710.19;;;6.11;60.32
76868;BME280;66168;45.478;11.060;2023-12-20T02:37:02;100709.43;;;6.11;60.39
76868;BME280;66168;45.478;11.060;2023-12-20T02:39:29;100701.42;;;6.12;60.36
76868;BME280;66168;45.478;11.060;2023-12-20T02:41:56;100696.96;;;6.09;60.45
76868;BME280;66168;45.478;11.060;2023-12-20T02:44:23;100697.13;;;6.06;60.53
76868;BME280;66168;45.478;11.060;2023-12-20T02:46:50;100697.41;;;6.03;60.70
76868;BME280;66168;45.478;11.060;2023-12-20T02:49:17;100690.80;;;6.02;60.79
76868;BME280;66168;45.478;11.060;2023-12-20T02:51:44;100686.60;;;6.04;60.85
76868;BME280;66168;45.478;11.060;2023-12-20T02:54:11;100685.48;;;6.03;60.70
76868;BME280;66168;45.478;11.060;2023-12-20T02:56:37;100683.61;;;6.02;60.93
76868;BME280;66168;45.478;11.060;2023-12-20T02:59:04;100681.58;;;6.01;60.77
76868;BME280;66168;45.478;11.060;2023-12-20T03:01:35;100675.77;;;6.01;60.93
76868;BME280;66168;45.478;11.060;2023-12-20T03:04:08;100670.62;;;6.00;60.95
76868;BME280;66168;45.478;11.060;2023-12-20T03:06:35;100669.59;;;5.99;60.70
76868;BME280;66168;45.478;11.060;2023-12-20T03:09:02;100670.06;;;6.00;60.85
76868;BME280;66168;45.478;11.060;2023-12-20T03:11:28;100666.02;;;6.00;60.73
76868;BME280;66168;45.478;11.060;2023-12-20T03:13:56;100660.95;;;6.01;60.81
76868;BME280;66168;45.478;11.060;2023-12-20T03:16:23;100661.74;;;6.02;60.84
76868;BME280;66168;45.478;11.060;2023-12-20T03:18:50;100662.82;;;6.02;60.74
76868;BME280;66168;45.478;11.060;2023-12-20T03:21:17;100660.86;;;6.00;60.81
76868;BME280;66168;45.478;11.060;2023-12-20T03:23:45;100659.39;;;5.99;60.68
76868;BME280;66168;45.478;11.060;2023-12-20T03:26:13;100651.57;;;5.98;60.62
76868;BME280;66168;45.478;11.060;2023-12-20T03:28:40;100640.80;;;5.95;61.03
76868;BME280;66168;45.478;11.060;2023-12-20T03:31:09;100636.68;;;5.96;61.13
76868;BME280;66168;45.478;11.060;2023-12-20T03:33:36;100631.73;;;5.98;61.15
76868;BME280;66168;45.478;11.060;2023-12-20T03:36:04;100628.28;;;6.01;61.21
76868;BME280;66168;45.478;11.060;2023-12-20T03:38:31;100625.30;;;6.04;61.16
76868;BME280;66168;45.478;11.060;2023-12-20T03:40:57;100620.72;;;6.06;61.12
76868;BME280;66168;45.478;11.060;2023-12-20T03:43:24;100615.79;;;6.06;61.20
76868;BME280;66168;45.478;11.060;2023-12-20T03:45:51;100620.63;;;6.05;61.18
76868;BME280;66168;45.478;11.060;2023-12-20T03:48:18;100624.34;;;6.03;61.46
76868;BME280;66168;45.478;11.060;2023-12-20T03:50:45;100628.12;;;6.03;61.68
76868;BME280;66168;45.478;11.060;2023-12-20T03:53:12;100622.77;;;6.00;61.99
76868;BME280;66168;45.478;11.060;2023-12-20T03:55:39;100620.64;;;5.98;61.92
76868;BME280;66168;45.478;11.060;2023-12-20T03:58:06;100615.84;;;5.97;62.08
76868;BME280;66168;45.478;11.060;2023-12-20T04:00:33;100617.92;;;5.97;62.20
76868;BME280;66168;45.478;11.060;2023-12-20T04:02:59;100617.38;;;5.99;62.47
76868;BME280;66168;45.478;11.060;2023-12-20T04:05:26;100618.61;;;6.02;62.24
76868;BME280;66168;45.478;11.060;2023-12-20T04:07:53;100618.91;;;6.09;61.69
76868;BME280;66168;45.478;11.060;2023-12-20T04:10:20;100616.89;;;6.13;61.37
76868;BME280;66168;45.478;11.060;2023-12-20T04:12:47;100610.62;;;6.19;61.53
76868;BME280;66168;45.478;11.060;2023-12-20T04:15:14;100601.70;;;6.24;61.64
76868;BME280;66168;45.478;11.060;2023-12-20T04:17:41;100601.52;;;6.29;61.66
76868;BME280;66168;45.478;11.060;2023-12-20T04:20:08;100596.81;;;6.31;61.92
76868;BME280;66168;45.478;11.060;2023-12-20T04:22:35;100594.20;;;6.30;62.00
76868;BME280;66168;45.478;11.060;2023-12-20T04:25:02;100593.86;;;6.30;62.15
76868;BME280;66168;45.478;11.060;2023-12-20T04:27:29;100594.17;;;6.31;62.00
76868;BME280;66168;45.478;11.060;2023-12-20T04:29:56;100583.33;;;6.32;62.22
76868;BME280;66168;45.478;11.060;2023-12-20T04:32:23;100579.13;;;6.31;62.33
76868;BME280;66168;45.478;11.060;2023-12-20T04:34:50;100585.36;;;6.31;62.45
76868;BME280;66168;45.478;11.060;2023-12-20T04:37:17;100580.52;;;6.30;62.47
76868;BME280;66168;45.478;11.060;2023-12-20T04:39:44;100582.98;;;6.30;62.47
76868;BME280;66168;45.478;11.060;2023-12-20T04:42:11;100589.34;;;6.30;62.67
76868;BME280;66168;45.478;11.060;2023-12-20T04:44:38;100585.73;;;6.29;62.73
76868;BME280;66168;45.478;11.060;2023-12-20T04:47:06;100573.66;;;6.30;62.82
76868;BME280;66168;45.478;11.060;2023-12-20T04:49:33;100576.25;;;6.30;62.82
76868;BME280;66168;45.478;11.060;2023-12-20T04:52:00;100585.49;;;6.31;62.70
76868;BME280;66168;45.478;11.060;2023-12-20T04:54:27;100586.55;;;6.27;62.70
76868;BME280;66168;45.478;11.060;2023-12-20T04:56:54;100573.60;;;6.25;62.84
76868;BME280;66168;45.478;11.060;2023-12-20T04:59:21;100574.02;;;6.23;62.85
76868;BME280;66168;45.478;11.060;2023-12-20T05:01:48;100575.16;;;6.18;62.86
76868;BME280;66168;45.478;11.060;2023-12-20T05:04:15;100574.63;;;6.11;62.97
76868;BME280;66168;45.478;11.060;2023-12-20T05:06:42;100571.94;;;6.06;62.90
76868;BME280;66168;45.478;11.060;2023-12-20T05:09:09;100568.80;;;6.01;63.01
76868;BME280;66168;45.478;11.060;2023-12-20T05:11:36;100575.86;;;5.97;63.33
76868;BME280;66168;45.478;11.060;2023-12-20T05:14:03;100569.66;;;5.95;63.33
76868;BME280;66168;45.478;11.060;2023-12-20T05:16:30;100568.02;;;5.96;63.59
76868;BME280;66168;45.478;11.060;2023-12-20T05:18:57;100577.40;;;5.97;63.60
76868;BME280;66168;45.478;11.060;2023-12-20T05:21:25;100576.27;;;5.96;63.74
76868;BME280;66168;45.478;11.060;2023-12-20T05:23:52;100582.88;;;5.99;63.64
76868;BME280;66168;45.478;11.060;2023-12-20T05:26:19;100585.88;;;6.02;63.57
76868;BME280;66168;45.478;11.060;2023-12-20T05:28:46;100585.34;;;6.04;63.08
76868;BME280;66168;45.478;11.060;2023-12-20T05:31:12;100582.33;;;6.04;63.21
76868;BME280;66168;45.478;11.060;2023-12-20T05:33:39;100577.09;;;6.06;63.40
76868;BME280;66168;45.478;11.060;2023-12-20T05:36:07;100573.88;;;6.06;63.28
76868;BME280;66168;45.478;11.060;2023-12-20T05:38:38;100568.86;;;6.05;63.20
76868;BME280;66168;45.478;11.060;2023-12-20T05:41:04;100563.27;;;6.05;63.28
76868;BME280;66168;45.478;11.060;2023-12-20T05:43:31;100564.36;;;6.07;63.39
76868;BME280;66168;45.478;11.060;2023-12-20T05:45:59;100566.17;;;6.08;63.24
76868;BME280;66168;45.478;11.060;2023-12-20T05:48:26;100561.25;;;6.13;63.25
76868;BME280;66168;45.478;11.060;2023-12-20T05:50:54;100556.25;;;6.21;63.03
76868;BME280;66168;45.478;11.060;2023-12-20T05:53:21;100557.05;;;6.25;63.02
76868;BME280;66168;45.478;11.060;2023-12-20T05:55:48;100558.81;;;6.27;63.11
76868;BME280;66168;45.478;11.060;2023-12-20T05:58:15;100557.85;;;6.30;63.14
76868;BME280;66168;45.478;11.060;2023-12-20T06:00:43;100554.94;;;6.29;63.06
76868;BME280;66168;45.478;11.060;2023-12-20T06:03:10;100553.22;;;6.28;63.14
76868;BME280;66168;45.478;11.060;2023-12-20T06:05:37;100555.11;;;6.29;63.19
76868;BME280;66168;45.478;11.060;2023-12-20T06:08:04;100553.23;;;6.30;63.24
76868;BME280;66168;45.478;11.060;2023-12-20T06:10:31;100553.35;;;6.32;63.13
76868;BME280;66168;45.478;11.060;2023-12-20T06:12:57;100553.73;;;6.36;63.19
76868;BME280;66168;45.478;11.060;2023-12-20T06:15:27;100548.38;;;6.40;62.82
76868;BME280;66168;45.478;11.060;2023-12-20T06:17:54;100546.91;;;6.46;62.76
76868;BME280;66168;45.478;11.060;2023-12-20T06:20:21;100542.35;;;6.53;62.59
76868;BME280;66168;45.478;11.060;2023-12-20T06:22:48;100534.45;;;6.56;62.39
76868;BME280;66168;45.478;11.060;2023-12-20T06:25:15;100537.23;;;6.62;62.39
76868;BME280;66168;45.478;11.060;2023-12-20T06:27:42;100538.73;;;6.66;61.90
76868;BME280;66168;45.478;11.060;2023-12-20T06:30:10;100539.69;;;6.70;61.73
76868;BME280;66168;45.478;11.060;2023-12-20T06:32:37;100532.69;;;6.75;61.60
76868;BME280;66168;45.478;11.060;2023-12-20T06:35:05;100529.20;;;6.78;61.81
76868;BME280;66168;45.478;11.060;2023-12-20T06:37:32;100530.09;;;6.80;61.84
76868;BME280;66168;45.478;11.060;2023-12-20T06:39:59;100532.36;;;6.80;61.98
76868;BME280;66168;45.478;11.060;2023-12-20T06:42:26;100530.27;;;6.78;62.16
76868;BME280;66168;45.478;11.060;2023-12-20T06:44:53;100528.80;;;6.75;62.57
76868;BME280;66168;45.478;11.060;2023-12-20T06:47:20;100529.11;;;6.72;62.75
76868;BME280;66168;45.478;11.060;2023-12-20T06:49:47;100522.20;;;6.69;62.75
76868;BME280;66168;45.478;11.060;2023-12-20T06:52:15;100520.64;;;6.69;62.76
76868;BME280;66168;45.478;11.060;2023-12-20T06:54:42;100518.76;;;6.70;62.95
76868;BME280;66168;45.478;11.060;2023-12-20T06:57:09;100520.31;;;6.72;62.85
76868;BME280;66168;45.478;11.060;2023-12-20T06:59:40;100523.34;;;6.75;62.74
76868;BME280;66168;45.478;11.060;2023-12-20T07:02:08;100522.27;;;6.77;62.74
76868;BME280;66168;45.478;11.060;2023-12-20T07:04:41;100522.13;;;6.80;62.72
76868;BME280;66168;45.478;11.060;2023-12-20T07:07:08;100526.60;;;6.83;63.11
76868;BME280;66168;45.478;11.060;2023-12-20T07:09:35;100527.01;;;6.84;63.27
76868;BME280;66168;45.478;11.060;2023-12-20T07:12:02;100527.02;;;6.84;63.29
76868;BME280;66168;45.478;11.060;2023-12-20T07:14:29;100528.68;;;6.81;63.51
76868;BME280;66168;45.478;11.060;2023-12-20T07:16:56;100534.35;;;6.79;64.05
76868;BME280;66168;45.478;11.060;2023-12-20T07:19:23;100538.05;;;6.79;64.26
76868;BME280;66168;45.478;11.060;2023-12-20T07:21:50;100548.40;;;6.82;64.32
76868;BME280;66168;45.478;11.060;2023-12-20T07:24:17;100550.93;;;6.84;64.12
76868;BME280;66168;45.478;11.060;2023-12-20T07:26:44;100555.88;;;6.88;64.02
76868;BME280;66168;45.478;11.060;2023-12-20T07:29:11;100561.68;;;6.90;63.93
76868;BME280;66168;45.478;11.060;2023-12-20T07:31:38;100566.63;;;6.84;63.83
76868;BME280;66168;45.478;11.060;2023-12-20T07:34:05;100567.99;;;6.78;64.19
76868;BME280;66168;45.478;11.060;2023-12-20T07:36:32;100576.93;;;6.68;64.48
76868;BME280;66168;45.478;11.060;2023-12-20T07:38:59;100581.73;;;6.62;64.67
76868;BME280;66168;45.478;11.060;2023-12-20T07:41:26;100579.02;;;6.59;65.00
76868;BME280;66168;45.478;11.060;2023-12-20T07:43:53;100575.98;;;6.58;65.26
76868;BME280;66168;45.478;11.060;2023-12-20T07:46:21;100573.08;;;6.59;65.09
76868;BME280;66168;45.478;11.060;2023-12-20T07:48:51;100562.61;;;6.61;65.12
76868;BME280;66168;45.478;11.060;2023-12-20T07:51:19;100560.70;;;6.65;65.24
76868;BME280;66168;45.478;11.060;2023-12-20T07:53:47;100562.88;;;6.69;65.08
76868;BME280;66168;45.478;11.060;2023-12-20T07:56:16;100565.15;;;6.76;64.88
76868;BME280;66168;45.478;11.060;2023-12-20T07:58:43;100570.98;;;6.85;64.38
76868;BME280;66168;45.478;11.060;2023-12-20T08:01:19;100571.41;;;6.93;64.23
76868;BME280;66168;45.478;11.060;2023-12-20T08:03:48;100570.63;;;7.03;64.41
76868;BME280;66168;45.478;11.060;2023-12-20T08:06:15;100569.05;;;7.09;64.87
76868;BME280;66168;45.478;11.060;2023-12-20T08:08:44;100572.20;;;7.16;64.92
76868;BME280;66168;45.478;11.060;2023-12-20T08:11:20;100570.47;;;7.19;65.19
76868;BME280;66168;45.478;11.060;2023-12-20T08:13:47;100575.33;;;7.23;65.32
76868;BME280;66168;45.478;11.060;2023-12-20T08:16:14;100577.76;;;7.27;65.14
76868;BME280;66168;45.478;11.060;2023-12-20T08:18:42;100573.91;;;7.25;65.67
76868;BME280;66168;45.478;11.060;2023-12-20T08:21:09;100577.63;;;7.22;66.28
76868;BME280;66168;45.478;11.060;2023-12-20T08:23:36;100583.13;;;7.21;66.44
76868;BME280;66168;45.478;11.060;2023-12-20T08:26:07;100582.73;;;7.23;66.65
76868;BME280;66168;45.478;11.060;2023-12-20T08:28:34;100587.69;;;7.28;66.73
76868;BME280;66168;45.478;11.060;2023-12-20T08:31:01;100590.61;;;7.36;66.41
76868;BME280;66168;45.478;11.060;2023-12-20T08:33:28;100588.65;;;7.36;66.69
76868;BME280;66168;45.478;11.060;2023-12-20T08:35:55;100591.31;;;7.26;66.18
76868;BME280;66168;45.478;11.060;2023-12-20T08:38:22;100593.15;;;7.15;66.39
76868;BME280;66168;45.478;11.060;2023-12-20T08:40:49;100598.23;;;7.08;66.02
76868;BME280;66168;45.478;11.060;2023-12-20T08:43:16;100595.10;;;6.97;66.16
76868;BME280;66168;45.478;11.060;2023-12-20T08:45:43;100597.82;;;6.89;66.16
76868;BME280;66168;45.478;11.060;2023-12-20T08:48:10;100599.10;;;6.80;65.95
76868;BME280;66168;45.478;11.060;2023-12-20T08:50:37;100598.98;;;6.73;65.67
76868;BME280;66168;45.478;11.060;2023-12-20T08:53:04;100601.67;;;6.72;65.98
76868;BME280;66168;45.478;11.060;2023-12-20T08:55:31;100602.27;;;6.80;65.39
76868;BME280;66168;45.478;11.060;2023-12-20T08:57:58;100606.29;;;6.90;65.11
76868;BME280;66168;45.478;11.060;2023-12-20T09:00:25;100605.42;;;6.93;64.44
76868;BME280;66168;45.478;11.060;2023-12-20T09:02:54;100593.63;;;6.91;65.44
76868;BME280;66168;45.478;11.060;2023-12-20T09:05:21;100589.79;;;6.88;65.54
76868;BME280;66168;45.478;11.060;2023-12-20T09:07:49;100589.50;;;6.88;64.36
76868;BME280;66168;45.478;11.060;2023-12-20T09:10:16;100590.67;;;6.85;64.49
76868;BME280;66168;45.478;11.060;2023-12-20T09:12:52;100593.73;;;6.83;64.09
76868;BME280;66168;45.478;11.060;2023-12-20T09:15:24;100597.81;;;6.84;64.96
76868;BME280;66168;45.478;11.060;2023-12-20T09:17:51;100601.21;;;6.91;64.56
76868;BME280;66168;45.478;11.060;2023-12-20T09:20:18;100603.16;;;6.96;65.21
76868;BME280;66168;45.478;11.060;2023-12-20T09:22:45;100608.19;;;7.01;65.00
76868;BME280;66168;45.478;11.060;2023-12-20T09:25:12;100606.68;;;6.94;65.39
76868;BME280;66168;45.478;11.060;2023-12-20T09:27:40;100612.80;;;6.88;66.14
76868;BME280;66168;45.478;11.060;2023-12-20T09:30:08;100615.20;;;6.81;67.10
76868;BME280;66168;45.478;11.060;2023-12-20T09:32:35;100610.27;;;6.76;67.23
76868;BME280;66168;45.478;11.060;2023-12-20T09:35:02;100606.36;;;6.57;68.03
76868;BME280;66168;45.478;11.060;2023-12-20T09:37:32;100603.20;;;6.47;67.79
76868;BME280;66168;45.478;11.060;2023-12-20T09:39:59;100600.30;;;6.41;68.15
76868;BME280;66168;45.478;11.060;2023-12-20T09:42:41;100594.29;;;6.39;68.13
76868;BME280;66168;45.478;11.060;2023-12-20T09:45:13;100586.89;;;6.46;68.32
76868;BME280;66168;45.478;11.060;2023-12-20T09:47:43;100579.90;;;6.58;68.14
76868;BME280;66168;45.478;11.060;2023-12-20T09:50:11;100575.46;;;6.70;67.85
76868;BME280;66168;45.478;11.060;2023-12-20T09:52:39;100573.31;;;6.83;67.44
76868;BME280;66168;45.478;11.060;2023-12-20T09:55:07;100569.70;;;6.94;66.68
76868;BME280;66168;45.478;11.060;2023-12-20T09:57:34;100567.08;;;7.02;66.60
76868;BME280;66168;45.478;11.060;2023-12-20T10:00:02;100566.27;;;7.10;66.59
76868;BME280;66168;45.478;11.060;2023-12-20T10:02:44;100567.36;;;7.19;66.14
76868;BME280;66168;45.478;11.060;2023-12-20T10:05:16;100562.25;;;7.27;65.81
76868;BME280;66168;45.478;11.060;2023-12-20T10:07:46;100553.20;;;7.33;65.13
76868;BME280;66168;45.478;11.060;2023-12-20T10:10:15;100546.03;;;7.35;63.92
76868;BME280;66168;45.478;11.060;2023-12-20T10:13:04;100546.54;;;7.34;63.41
76868;BME280;66168;45.478;11.060;2023-12-20T10:15:35;100544.27;;;7.35;63.89
76868;BME280;66168;45.478;11.060;2023-12-20T10:18:03;100538.09;;;7.37;62.69
76868;BME280;66168;45.478;11.060;2023-12-20T10:20:31;100536.13;;;7.39;63.22
76868;BME280;66168;45.478;11.060;2023-12-20T10:22:59;100529.94;;;7.43;63.44
76868;BME280;66168;45.478;11.060;2023-12-20T10:25:27;100527.98;;;7.41;64.36
76868;BME280;66168;45.478;11.060;2023-12-20T10:28:14;100525.68;;;7.39;64.54
76868;BME280;66168;45.478;11.060;2023-12-20T10:30:44;100522.54;;;7.45;64.89
76868;BME280;66168;45.478;11.060;2023-12-20T10:33:11;100525.71;;;7.39;64.91
76868;BME280;66168;45.478;11.060;2023-12-20T10:35:39;100523.09;;;7.39;65.00
76868;BME280;66168;45.478;11.060;2023-12-20T10:38:12;100530.96;;;7.43;65.38
76868;BME280;66168;45.478;11.060;2023-12-20T10:40:41;100531.62;;;7.49;65.44
76868;BME280;66168;45.478;11.060;2023-12-20T10:43:08;100528.25;;;7.49;65.29
76868;BME280;66168;45.478;11.060;2023-12-20T10:45:37;100524.05;;;7.45;64.52
76868;BME280;66168;45.478;11.060;2023-12-20T10:48:04;100523.04;;;7.47;64.37
76868;BME280;66168;45.478;11.060;2023-12-20T10:50:33;100523.48;;;7.49;64.12
76868;BME280;66168;45.478;11.060;2023-12-20T10:53:03;100523.05;;;7.48;64.37
76868;BME280;66168;45.478;11.060;2023-12-20T10:55:30;100514.05;;;7.46;64.81
76868;BME280;66168;45.478;11.060;2023-12-20T10:58:01;100513.17;;;7.50;64.99
76868;BME280;66168;45.478;11.060;2023-12-20T11:00:29;100512.04;;;7.49;65.06
76868;BME280;66168;45.478;11.060;2023-12-20T11:03:01;100507.00;;;7.48;65.48
76868;BME280;66168;45.478;11.060;2023-12-20T11:05:49;100509.69;;;7.49;65.63
76868;BME280;66168;45.478;11.060;2023-12-20T11:08:46;100513.26;;;7.56;65.36
76868;BME280;66168;45.478;11.060;2023-12-20T11:11:27;100518.77;;;7.55;64.58
76868;BME280;66168;45.478;11.060;2023-12-20T11:14:03;100519.59;;;7.53;64.66
76868;BME280;66168;45.478;11.060;2023-12-20T11:16:32;100517.08;;;7.53;63.99
76868;BME280;66168;45.478;11.060;2023-12-20T11:19:14;100520.46;;;7.56;63.80
76868;BME280;66168;45.478;11.060;2023-12-20T11:21:41;100516.02;;;7.61;64.04
76868;BME280;66168;45.478;11.060;2023-12-20T11:24:09;100516.20;;;7.61;63.97
76868;BME280;66168;45.478;11.060;2023-12-20T11:26:36;100517.23;;;7.55;64.54
76868;BME280;66168;45.478;11.060;2023-12-20T11:29:29;100517.04;;;7.57;64.13
76868;BME280;66168;45.478;11.060;2023-12-20T11:31:56;100519.54;;;7.65;64.48
76868;BME280;66168;45.478;11.060;2023-12-20T11:34:27;100519.77;;;7.72;64.46
76868;BME280;66168;45.478;11.060;2023-12-20T11:36:59;100513.54;;;7.78;64.23
76868;BME280;66168;45.478;11.060;2023-12-20T11:39:27;100515.05;;;7.87;64.12
76868;BME280;66168;45.478;11.060;2023-12-20T11:41:56;100515.83;;;7.94;64.24
76868;BME280;66168;45.478;11.060;2023-12-20T11:44:25;100514.46;;;8.03;64.47
76868;BME280;66168;45.478;11.060;2023-12-20T11:46:54;100504.71;;;8.13;64.57
76868;BME280;66168;45.478;11.060;2023-12-20T11:49:24;100499.80;;;8.21;64.16
76868;BME280;66168;45.478;11.060;2023-12-20T11:51:52;100489.38;;;8.27;63.82
76868;BME280;66168;45.478;11.060;2023-12-20T11:54:19;100476.59;;;8.33;63.54
76868;BME280;66168;45.478;11.060;2023-12-20T11:56:47;100467.48;;;8.38;63.42
76868;BME280;66168;45.478;11.060;2023-12-20T11:59:15;100466.21;;;8.43;63.37
76868;BME280;66168;45.478;11.060;2023-12-20T12:01:50;100463.54;;;8.47;63.00
76868;BME280;66168;45.478;11.060;2023-12-20T12:04:18;100461.64;;;8.55;63.19
76868;BME280;66168;45.478;11.060;2023-12-20T12:06:46;100458.95;;;8.62;63.36
76868;BME280;66168;45.478;11.060;2023-12-20T12:09:13;100452.95;;;8.68;63.45
76868;BME280;66168;45.478;11.060;2023-12-20T12:11:40;100456.61;;;8.75;63.44
76868;BME280;66168;45.478;11.060;2023-12-20T12:14:07;100451.77;;;8.82;63.38
76868;BME280;66168;45.478;11.060;2023-12-20T12:16:34;100452.05;;;8.84;63.43
76868;BME280;66168;45.478;11.060;2023-12-20T12:19:01;100444.36;;;8.85;63.79
76868;BME280;66168;45.478;11.060;2023-12-20T12:21:28;100437.06;;;8.85;63.82
76868;BME280;66168;45.478;11.060;2023-12-20T12:24:09;100434.22;;;8.84;63.86
76868;BME280;66168;45.478;11.060;2023-12-20T12:26:37;100431.57;;;8.84;63.74
76868;BME280;66168;45.478;11.060;2023-12-20T12:29:07;100431.42;;;8.90;63.69
76868;BME280;66168;45.478;11.060;2023-12-20T12:31:34;100425.45;;;9.00;64.14
76868;BME280;66168;45.478;11.060;2023-12-20T12:34:01;100420.68;;;9.08;63.86
76868;BME280;66168;45.478;11.060;2023-12-20T12:36:29;100422.90;;;9.14;63.36
76868;BME280;66168;45.478;11.060;2023-12-20T12:38:57;100422.52;;;9.17;63.16
76868;BME280;66168;45.478;11.060;2023-12-20T12:41:25;100427.46;;;9.22;62.95
76868;BME280;66168;45.478;11.060;2023-12-20T12:43:52;100425.61;;;9.21;63.02
76868;BME280;66168;45.478;11.060;2023-12-20T12:46:19;100424.21;;;9.24;62.95
76868;BME280;66168;45.478;11.060;2023-12-20T12:48:46;100425.98;;;9.22;62.26
76868;BME280;66168;45.478;11.060;2023-12-20T12:51:13;100422.88;;;9.19;62.55
76868;BME280;66168;45.478;11.060;2023-12-20T12:53:40;100423.21;;;9.16;62.71
76868;BME280;66168;45.478;11.060;2023-12-20T12:56:07;100415.80;;;9.09;62.49